createdAt,value
2023-04-16T00:02:01.559Z,10.17
2023-04-16T00:04:28.629Z,10.23
2023-04-16T00:06:55.706Z,10.26
2023-04-16T00:09:22.617Z,10.10
2023-04-16T00:11:49.451Z,10.28
2023-04-16T00:14:16.279Z,10.02
2023-04-16T00:16:43.151Z,10.22
2023-04-16T00:19:10.238Z,10.28
2023-04-16T00:21:37.175Z,10.15
2023-04-16T00:24:04.084Z,10.28
2023-04-16T00:26:30.901Z,10.18
2023-04-16T00:28:57.719Z,10.30
2023-04-16T00:31:32.708Z,10.15
2023-04-16T00:34:00.389Z,10.12
2023-04-16T00:36:28.572Z,10.30
2023-04-16T00:38:56.786Z,10.04
2023-04-16T00:41:23.911Z,10.20
2023-04-16T00:43:51.527Z,10.15
2023-04-16T00:46:21.247Z,10.08
2023-04-16T00:48:49.022Z,10.15
2023-04-16T00:51:16.540Z,9.90
2023-04-16T00:53:44.736Z,9.92
2023-04-16T00:56:13.163Z,10.05
2023-04-16T00:58:40.472Z,9.99
2023-04-16T01:01:07.446Z,9.93
2023-04-16T01:04:00.671Z,9.74
2023-04-16T01:06:27.856Z,9.74
2023-04-16T01:08:54.743Z,9.68
2023-04-16T01:11:21.592Z,9.71
2023-04-16T01:13:48.373Z,9.93
2023-04-16T01:16:15.253Z,9.95
2023-04-16T01:18:42.158Z,10.14
2023-04-16T01:21:09.288Z,10.12
2023-04-16T01:23:36.356Z,10.22
2023-04-16T01:26:03.200Z,10.25
2023-04-16T01:28:30.044Z,10.26
2023-04-16T01:30:56.909Z,9.78
2023-04-16T01:33:23.724Z,10.07
2023-04-16T01:35:50.624Z,10.25
2023-04-16T01:38:17.620Z,10.24
2023-04-16T01:40:44.475Z,10.42
2023-04-16T01:43:11.327Z,10.51
2023-04-16T01:45:38.130Z,10.29
2023-04-16T01:48:05.336Z,10.34
2023-04-16T01:50:32.357Z,10.37
2023-04-16T01:52:59.270Z,10.37
2023-04-16T01:55:26.935Z,10.26
2023-04-16T01:57:53.765Z,10.31
2023-04-16T02:00:20.801Z,10.01
2023-04-16T02:02:49.253Z,10.13
2023-04-16T02:05:16.489Z,10.24
2023-04-16T02:07:43.280Z,10.26
2023-04-16T02:10:10.428Z,10.22
2023-04-16T02:12:37.378Z,10.33
2023-04-16T02:15:05.113Z,10.20
2023-04-16T02:17:32.057Z,10.32
2023-04-16T02:19:58.964Z,10.35
2023-04-16T02:22:25.861Z,10.24
2023-04-16T02:24:52.702Z,10.30
2023-04-16T02:27:19.531Z,10.26
2023-04-16T02:29:46.366Z,10.29
2023-04-16T02:32:13.343Z,9.90
2023-04-16T02:34:40.400Z,10.31
2023-04-16T02:37:07.310Z,10.44
2023-04-16T02:39:34.151Z,10.35
2023-04-16T02:42:02.667Z,10.33
2023-04-16T02:44:29.677Z,10.39
2023-04-16T02:46:56.475Z,10.41
2023-04-16T02:49:23.281Z,10.48
2023-04-16T02:51:50.260Z,10.26
2023-04-16T02:54:17.040Z,10.38
2023-04-16T02:56:43.859Z,10.19
2023-04-16T02:59:10.863Z,10.37
2023-04-16T03:01:37.886Z,10.33
2023-04-16T03:04:05.126Z,10.31
2023-04-16T03:06:32.042Z,10.04
2023-04-16T03:08:58.977Z,10.08
2023-04-16T03:11:25.863Z,10.23
2023-04-16T03:13:52.720Z,10.19
2023-04-16T03:16:19.698Z,10.16
2023-04-16T03:18:46.588Z,10.13
2023-04-16T03:21:13.470Z,10.16
2023-04-16T03:23:40.364Z,9.57
2023-04-16T03:26:07.193Z,10.10
2023-04-16T03:28:34.056Z,10.07
2023-04-16T03:31:01.228Z,10.16
2023-04-16T03:33:28.054Z,10.18
2023-04-16T03:35:58.447Z,10.16
2023-04-16T03:38:26.671Z,10.22
2023-04-16T03:40:53.605Z,10.08
2023-04-16T03:43:20.578Z,10.06
2023-04-16T03:45:47.894Z,9.97
2023-04-16T03:48:15.857Z,10.22
2023-04-16T03:50:47.476Z,10.01
2023-04-16T03:53:14.610Z,9.99
2023-04-16T03:55:42.337Z,10.19
2023-04-16T03:58:09.586Z,9.80
2023-04-16T04:00:36.445Z,10.22
2023-04-16T04:03:03.437Z,9.83
2023-04-16T04:05:30.374Z,10.26
2023-04-16T04:07:57.149Z,10.23
2023-04-16T04:10:24.016Z,10.21
2023-04-16T04:12:50.845Z,10.25
2023-04-16T04:15:17.782Z,10.31
2023-04-16T04:17:44.649Z,10.24
2023-04-16T04:20:12.261Z,10.20
2023-04-16T04:22:39.083Z,10.12
2023-04-16T04:25:06.339Z,10.01
2023-04-16T04:27:33.186Z,9.49
2023-04-16T04:29:59.973Z,9.94
2023-04-16T04:32:26.857Z,9.80
2023-04-16T04:34:53.754Z,9.84
2023-04-16T04:37:20.606Z,10.07
2023-04-16T04:39:47.503Z,10.09
2023-04-16T04:42:17.005Z,10.06
2023-04-16T04:44:44.253Z,9.91
2023-04-16T04:47:11.189Z,9.69
2023-04-16T04:49:37.956Z,9.92
2023-04-16T04:52:04.823Z,9.74
2023-04-16T04:54:32.564Z,10.04
2023-04-16T04:56:59.778Z,10.14
2023-04-16T04:59:26.621Z,10.12
2023-04-16T05:01:53.522Z,9.89
2023-04-16T05:04:20.494Z,9.93
2023-04-16T05:06:47.357Z,9.85
2023-04-16T05:09:14.202Z,10.21
2023-04-16T05:11:42.131Z,10.23
2023-04-16T05:14:09.220Z,10.27
2023-04-16T05:16:37.263Z,10.05
2023-04-16T05:19:04.869Z,10.14
2023-04-16T05:21:31.852Z,10.29
2023-04-16T05:23:59.084Z,10.18
2023-04-16T05:26:26.126Z,10.34
2023-04-16T05:28:52.958Z,10.23
2023-04-16T05:31:19.903Z,10.49
2023-04-16T05:33:46.810Z,10.55
2023-04-16T05:36:13.653Z,10.64
2023-04-16T05:38:40.429Z,10.39
2023-04-16T05:41:07.283Z,10.60
2023-04-16T05:43:34.128Z,10.71
2023-04-16T05:46:00.944Z,10.70
2023-04-16T05:48:27.816Z,10.61
2023-04-16T05:50:54.677Z,10.70
2023-04-16T05:53:21.532Z,10.55
2023-04-16T05:55:48.300Z,10.55
2023-04-16T05:58:15.267Z,10.82
2023-04-16T06:00:42.107Z,10.86
2023-04-16T06:03:09.258Z,10.70
2023-04-16T06:05:36.293Z,11.02
2023-04-16T06:08:03.246Z,10.93
2023-04-16T06:10:30.346Z,10.86
2023-04-16T06:12:57.165Z,10.93
2023-04-16T06:15:24.018Z,10.97
2023-04-16T06:17:51.171Z,10.98
2023-04-16T06:20:18.162Z,11.02
2023-04-16T06:22:45.064Z,10.89
2023-04-16T06:25:11.956Z,10.82
2023-04-16T06:27:38.794Z,11.04
2023-04-16T06:30:11.995Z,10.89
2023-04-16T06:32:39.164Z,11.07
2023-04-16T06:35:07.274Z,11.25
2023-04-16T06:37:35.531Z,11.21
2023-04-16T06:40:02.636Z,11.18
2023-04-16T06:42:29.581Z,11.18
2023-04-16T06:44:56.524Z,11.24
2023-04-16T06:47:23.377Z,11.25
2023-04-16T06:49:50.286Z,11.25
2023-04-16T06:52:17.200Z,11.29
2023-04-16T06:54:43.975Z,11.06
2023-04-16T06:57:11.320Z,11.18
2023-04-16T06:59:38.120Z,11.18
2023-04-16T07:02:05.032Z,11.15
2023-04-16T07:04:31.999Z,11.13
2023-04-16T07:06:58.875Z,11.17
2023-04-16T07:09:26.756Z,11.24
2023-04-16T07:11:54.434Z,11.32
2023-04-16T07:14:21.396Z,11.36
2023-04-16T07:16:48.346Z,11.45
2023-04-16T07:19:17.355Z,10.99
2023-04-16T07:21:44.503Z,11.00
2023-04-16T07:24:11.795Z,11.23
2023-04-16T07:26:38.675Z,11.00
2023-04-16T07:29:05.537Z,11.38
2023-04-16T07:31:32.611Z,11.44
2023-04-16T07:33:59.687Z,11.62
2023-04-16T07:36:28.381Z,11.79
2023-04-16T07:38:56.201Z,11.83
2023-04-16T07:41:23.137Z,11.78
2023-04-16T07:43:50.002Z,11.29
2023-04-16T07:46:17.035Z,11.78
2023-04-16T07:48:43.853Z,11.85
2023-04-16T07:51:10.657Z,11.47
2023-04-16T07:53:37.513Z,11.44
2023-04-16T07:56:04.372Z,11.78
2023-04-16T07:58:31.250Z,12.07
2023-04-16T08:00:58.957Z,12.31
2023-04-16T08:03:25.996Z,12.44
2023-04-16T08:05:53.003Z,12.23
2023-04-16T08:08:19.899Z,12.12
2023-04-16T08:10:46.816Z,12.37
2023-04-16T08:13:19.486Z,12.12
2023-04-16T08:15:46.775Z,12.37
2023-04-16T08:18:15.579Z,12.57
2023-04-16T08:20:43.107Z,11.85
2023-04-16T08:23:10.710Z,12.09
2023-04-16T08:25:38.129Z,12.53
2023-04-16T08:28:05.339Z,12.99
2023-04-16T08:30:32.290Z,12.93
2023-04-16T08:32:59.340Z,13.10
2023-04-16T08:35:26.193Z,12.90
2023-04-16T08:37:53.758Z,13.09
2023-04-16T08:40:21.243Z,13.51
2023-04-16T08:42:58.494Z,13.75
2023-04-16T08:45:27.453Z,13.33
2023-04-16T08:47:54.385Z,13.07
2023-04-16T08:50:26.184Z,13.91
2023-04-16T08:52:58.966Z,14.42
2023-04-16T08:55:43.733Z,14.58
2023-04-16T08:58:23.920Z,14.70
2023-04-16T09:00:51.065Z,13.93
2023-04-16T09:03:21.470Z,13.55
2023-04-16T09:05:50.410Z,13.85
2023-04-16T09:08:18.167Z,14.34
2023-04-16T09:10:45.207Z,14.92
2023-04-16T09:13:13.663Z,15.07
2023-04-16T09:15:41.975Z,13.80
2023-04-16T09:18:08.845Z,14.27
2023-04-16T09:20:35.614Z,14.60
2023-04-16T09:23:02.466Z,14.00
2023-04-16T09:25:37.558Z,14.35
2023-04-16T09:28:05.279Z,14.12
2023-04-16T09:30:33.545Z,14.61
2023-04-16T09:33:22.423Z,14.71
2023-04-16T09:35:54.297Z,14.48
2023-04-16T09:38:21.763Z,14.38
2023-04-16T09:40:48.777Z,14.62
2023-04-16T09:43:17.960Z,14.75
2023-04-16T09:45:55.137Z,15.28
2023-04-16T09:48:30.557Z,15.53
2023-04-16T09:50:59.464Z,15.04
2023-04-16T09:53:32.430Z,15.59
2023-04-16T09:56:05.391Z,15.00
2023-04-16T09:58:33.033Z,15.50
2023-04-16T10:01:06.210Z,15.14
2023-04-16T10:03:34.915Z,14.17
2023-04-16T10:06:20.183Z,13.75
2023-04-16T10:08:50.189Z,13.56
2023-04-16T10:11:18.816Z,13.32
2023-04-16T10:13:46.441Z,14.07
2023-04-16T10:16:13.661Z,14.55
2023-04-16T10:18:44.640Z,14.87
2023-04-16T10:21:12.767Z,14.21
2023-04-16T10:23:40.774Z,14.94
2023-04-16T10:26:07.949Z,14.97
2023-04-16T10:28:35.663Z,14.90
2023-04-16T10:31:09.177Z,14.61
2023-04-16T10:33:40.463Z,14.01
2023-04-16T10:36:16.417Z,14.74
2023-04-16T10:38:49.939Z,14.96
2023-04-16T10:41:17.252Z,15.80
2023-04-16T10:43:51.620Z,15.58
2023-04-16T10:46:27.138Z,15.91
2023-04-16T10:48:55.836Z,15.34
2023-04-16T10:51:28.054Z,16.07
2023-04-16T10:53:57.221Z,15.22
2023-04-16T10:56:26.710Z,15.69
2023-04-16T10:58:56.109Z,15.99
2023-04-16T11:01:36.007Z,15.15
2023-04-16T11:04:25.562Z,14.81
2023-04-16T11:07:18.791Z,14.58
2023-04-16T11:10:02.268Z,15.13
2023-04-16T11:12:44.681Z,15.67
2023-04-16T11:15:14.578Z,15.96
2023-04-16T11:17:51.676Z,15.76
2023-04-16T11:20:26.923Z,15.43
2023-04-16T11:22:56.260Z,15.22
2023-04-16T11:25:34.000Z,15.03
2023-04-16T11:28:02.577Z,15.28
2023-04-16T11:30:35.450Z,14.88
2023-04-16T11:33:11.624Z,14.43
2023-04-16T11:35:39.735Z,15.16
2023-04-16T11:38:07.325Z,14.73
2023-04-16T11:40:35.017Z,15.03
2023-04-16T11:43:14.830Z,15.35
2023-04-16T11:46:01.603Z,16.97
2023-04-16T11:48:53.378Z,17.77
2023-04-16T11:51:21.791Z,18.56
2023-04-16T11:53:53.542Z,19.34
2023-04-16T11:56:34.224Z,19.62
2023-04-16T11:59:09.792Z,19.81
2023-04-16T12:01:39.355Z,17.10
2023-04-16T12:04:07.399Z,16.62
2023-04-16T12:06:34.635Z,18.01
2023-04-16T12:09:25.251Z,17.94
2023-04-16T12:11:52.620Z,18.29
2023-04-16T12:14:20.071Z,19.00
2023-04-16T12:16:47.851Z,19.29
2023-04-16T12:19:15.805Z,18.63
2023-04-16T12:21:51.384Z,19.40
2023-04-16T12:24:24.404Z,19.17
2023-04-16T12:27:03.361Z,18.59
2023-04-16T12:29:31.260Z,17.91
2023-04-16T12:31:58.050Z,16.93
2023-04-16T12:34:36.499Z,17.60
2023-04-16T12:37:12.353Z,16.09
2023-04-16T12:39:39.214Z,16.43
2023-04-16T12:42:09.837Z,17.10
2023-04-16T12:44:36.762Z,16.66
2023-04-16T12:47:05.500Z,17.29
2023-04-16T12:49:32.441Z,17.36
2023-04-16T12:51:59.314Z,17.80
2023-04-16T12:54:28.982Z,17.05
2023-04-16T12:56:55.796Z,17.82
2023-04-16T12:59:23.033Z,17.32
2023-04-16T13:01:50.072Z,16.74
2023-04-16T13:04:19.075Z,17.00
2023-04-16T13:06:46.334Z,16.63
2023-04-16T13:09:13.327Z,15.75
2023-04-16T13:11:40.142Z,15.43
2023-04-16T13:14:07.062Z,16.06
2023-04-16T13:16:33.926Z,16.28
2023-04-16T13:19:00.842Z,16.22
2023-04-16T13:21:27.995Z,16.65
2023-04-16T13:23:56.221Z,16.55
2023-04-16T13:26:23.060Z,16.64
2023-04-16T13:28:49.894Z,16.65
2023-04-16T13:31:19.971Z,16.53
2023-04-16T13:33:47.232Z,16.42
2023-04-16T13:36:14.541Z,16.26
2023-04-16T13:38:42.174Z,16.25
2023-04-16T13:41:09.012Z,16.18
2023-04-16T13:43:37.745Z,15.80
2023-04-16T13:46:04.668Z,15.76
2023-04-16T13:48:32.627Z,15.70
2023-04-16T13:50:59.434Z,15.75
2023-04-16T13:53:26.572Z,15.70
2023-04-16T13:55:53.436Z,15.76
2023-04-16T13:58:20.425Z,15.68
2023-04-16T14:00:47.429Z,15.67
2023-04-16T14:03:14.365Z,15.67
2023-04-16T14:05:41.359Z,15.70
2023-04-16T14:08:08.277Z,15.71
2023-04-16T14:10:35.417Z,15.74
2023-04-16T14:13:03.282Z,15.67
2023-04-16T14:15:31.238Z,15.62
2023-04-16T14:17:58.365Z,15.58
2023-04-16T14:20:25.355Z,15.52
2023-04-16T14:22:52.308Z,15.55
2023-04-16T14:25:19.176Z,14.97
2023-04-16T14:27:46.050Z,14.99
2023-04-16T14:30:13.118Z,14.46
2023-04-16T14:32:40.890Z,14.55
2023-04-16T14:35:08.389Z,14.75
2023-04-16T14:37:36.525Z,14.96
2023-04-16T14:40:09.001Z,14.93
2023-04-16T14:42:38.044Z,15.02
2023-04-16T14:45:06.888Z,15.04
2023-04-16T14:47:35.314Z,14.85
2023-04-16T14:50:03.422Z,14.76
2023-04-16T14:52:33.510Z,14.16
2023-04-16T14:55:00.400Z,14.19
2023-04-16T14:57:27.256Z,14.56
2023-04-16T14:59:54.144Z,14.72
2023-04-16T15:02:21.825Z,14.63
2023-04-16T15:04:48.788Z,14.99
2023-04-16T15:07:15.754Z,15.13
2023-04-16T15:09:42.613Z,15.65
2023-04-16T15:12:09.510Z,15.58
2023-04-16T15:14:36.389Z,15.70
2023-04-16T15:17:03.616Z,15.64
2023-04-16T15:19:30.630Z,15.33
2023-04-16T15:21:57.492Z,14.84
2023-04-16T15:24:24.634Z,15.05
2023-04-16T15:26:51.475Z,14.60
2023-04-16T15:29:18.393Z,14.77
2023-04-16T15:31:45.434Z,14.69
2023-04-16T15:34:12.655Z,14.65
2023-04-16T15:36:39.724Z,15.08
2023-04-16T15:39:06.584Z,14.87
2023-04-16T15:41:36.920Z,14.24
2023-04-16T15:44:04.343Z,14.24
2023-04-16T15:46:31.442Z,13.93
2023-04-16T15:48:58.316Z,14.23
2023-04-16T15:51:25.123Z,14.65
2023-04-16T15:53:52.053Z,15.19
2023-04-16T15:56:20.485Z,15.07
2023-04-16T15:58:48.127Z,15.18
2023-04-16T16:01:16.372Z,15.47
2023-04-16T16:03:46.961Z,14.61
2023-04-16T16:06:14.739Z,14.08
2023-04-16T16:08:42.978Z,13.95
2023-04-16T16:11:09.965Z,14.36
2023-04-16T16:13:37.061Z,14.03
2023-04-16T16:16:04.467Z,14.56
2023-04-16T16:18:31.711Z,14.30
2023-04-16T16:20:59.093Z,14.60
2023-04-16T16:23:26.002Z,14.85
2023-04-16T16:25:52.869Z,14.34
2023-04-16T16:28:20.521Z,14.67
2023-04-16T16:30:47.543Z,14.82
2023-04-16T16:33:15.410Z,14.98
2023-04-16T16:35:42.236Z,14.83
2023-04-16T16:38:09.586Z,14.38
2023-04-16T16:40:37.020Z,14.70
2023-04-16T16:43:03.951Z,14.49
2023-04-16T16:45:30.970Z,14.80
2023-04-16T16:47:58.962Z,14.70
2023-04-16T16:50:26.134Z,14.90
2023-04-16T16:52:52.963Z,15.10
2023-04-16T16:55:20.933Z,15.05
2023-04-16T16:57:47.806Z,15.00
2023-04-16T17:00:16.180Z,15.23
2023-04-16T17:02:43.729Z,15.29
2023-04-16T17:05:10.961Z,15.36
2023-04-16T17:07:38.260Z,15.37
2023-04-16T17:10:11.142Z,14.97
2023-04-16T17:12:37.956Z,14.87
2023-04-16T17:15:05.166Z,14.86
2023-04-16T17:17:32.983Z,14.72
2023-04-16T17:20:01.007Z,14.54
2023-04-16T17:22:27.886Z,14.45
2023-04-16T17:24:54.737Z,14.27
2023-04-16T17:27:21.639Z,14.25
2023-04-16T17:29:48.471Z,14.14
2023-04-16T17:32:15.416Z,14.03
2023-04-16T17:34:42.314Z,14.00
2023-04-16T17:37:09.181Z,14.01
2023-04-16T17:39:36.006Z,13.81
2023-04-16T17:42:03.956Z,13.85
2023-04-16T17:44:30.857Z,13.71
2023-04-16T17:46:57.717Z,13.70
2023-04-16T17:49:25.571Z,13.47
2023-04-16T17:51:53.786Z,13.39
2023-04-16T17:54:20.636Z,13.38
2023-04-16T17:56:47.911Z,13.29
2023-04-16T17:59:14.738Z,13.12
2023-04-16T18:01:41.759Z,12.93
2023-04-16T18:04:09.428Z,12.81
2023-04-16T18:06:36.498Z,12.68
2023-04-16T18:09:05.696Z,12.66
2023-04-16T18:11:32.630Z,12.53
2023-04-16T18:13:59.469Z,12.37
2023-04-16T18:16:26.707Z,12.34
2023-04-16T18:18:53.653Z,12.35
2023-04-16T18:21:20.623Z,12.26
2023-04-16T18:23:47.462Z,12.21
2023-04-16T18:26:17.820Z,12.14
2023-04-16T18:28:47.167Z,12.03
2023-04-16T18:31:14.003Z,11.97
2023-04-16T18:33:55.279Z,11.97
2023-04-16T18:36:23.097Z,11.81
2023-04-16T18:39:00.316Z,11.73
2023-04-16T18:41:29.060Z,11.60
2023-04-16T18:43:55.949Z,11.50
2023-04-16T18:46:22.955Z,11.40
2023-04-16T18:48:49.855Z,11.26
2023-04-16T18:51:16.921Z,10.94
2023-04-16T18:53:45.530Z,10.59
2023-04-16T18:56:12.953Z,10.47
2023-04-16T18:58:39.967Z,10.45
2023-04-16T19:01:11.180Z,10.37
2023-04-16T19:03:38.785Z,10.47
2023-04-16T19:06:06.563Z,10.47
2023-04-16T19:08:33.417Z,10.50
2023-04-16T19:11:00.309Z,10.53
2023-04-16T19:13:27.180Z,10.62
2023-04-16T19:16:01.711Z,10.60
2023-04-16T19:18:28.826Z,10.68
2023-04-16T19:21:02.059Z,10.69
2023-04-16T19:23:29.207Z,10.61
2023-04-16T19:25:56.932Z,10.62
2023-04-16T19:28:24.953Z,10.60
2023-04-16T19:30:53.065Z,10.60
2023-04-16T19:33:20.449Z,10.59
2023-04-16T19:35:47.546Z,10.59
2023-04-16T19:38:14.423Z,10.59
2023-04-16T19:40:45.765Z,10.61
2023-04-16T19:43:12.962Z,10.65
2023-04-16T19:45:47.571Z,10.69
2023-04-16T19:48:14.868Z,10.71
2023-04-16T19:50:42.580Z,10.75
2023-04-16T19:53:10.203Z,10.74
2023-04-16T19:55:39.491Z,10.59
2023-04-16T19:58:06.618Z,10.43
2023-04-16T20:00:38.487Z,10.29
2023-04-16T20:03:06.215Z,10.12
2023-04-16T20:05:33.382Z,10.11
2023-04-16T20:08:00.382Z,10.09
2023-04-16T20:10:27.733Z,9.95
2023-04-16T20:12:54.561Z,9.96
2023-04-16T20:15:21.617Z,9.88
2023-04-16T20:17:48.601Z,9.81
2023-04-16T20:20:16.349Z,9.75
2023-04-16T20:22:43.782Z,9.77
2023-04-16T20:25:10.775Z,9.69
2023-04-16T20:27:37.869Z,9.58
2023-04-16T20:30:06.195Z,9.60
2023-04-16T20:32:33.345Z,9.54
2023-04-16T20:35:00.304Z,9.55
2023-04-16T20:37:29.006Z,9.54
2023-04-16T20:39:56.201Z,9.45
2023-04-16T20:42:26.230Z,9.47
2023-04-16T20:44:56.512Z,9.35
2023-04-16T20:47:23.832Z,9.31
2023-04-16T20:49:52.791Z,9.29
2023-04-16T20:52:20.128Z,9.27
2023-04-16T20:54:48.275Z,9.28
2023-04-16T20:57:15.091Z,9.24
2023-04-16T20:59:41.944Z,9.17
2023-04-16T21:02:08.939Z,9.27
2023-04-16T21:04:36.237Z,9.28
2023-04-16T21:07:04.140Z,9.33
2023-04-16T21:09:31.524Z,9.12
2023-04-16T21:11:58.476Z,9.07
2023-04-16T21:14:25.391Z,9.04
2023-04-16T21:16:52.234Z,9.02
2023-04-16T21:19:19.080Z,9.06
2023-04-16T21:21:46.120Z,9.11
2023-04-16T21:24:13.064Z,9.24
2023-04-16T21:26:39.875Z,9.24
2023-04-16T21:29:06.760Z,9.27
2023-04-16T21:31:33.715Z,9.33
2023-04-16T21:34:00.724Z,9.33
2023-04-16T21:36:29.129Z,9.25
2023-04-16T21:38:55.999Z,9.23
2023-04-16T21:41:22.799Z,9.18
2023-04-16T21:43:49.642Z,9.21
2023-04-16T21:46:16.532Z,9.20
2023-04-16T21:48:43.494Z,9.32
2023-04-16T21:51:10.366Z,9.28
2023-04-16T21:53:38.750Z,9.27
2023-04-16T21:56:06.627Z,9.14
2023-04-16T21:58:33.510Z,8.97
2023-04-16T22:01:00.321Z,8.95
2023-04-16T22:03:27.769Z,8.92
2023-04-16T22:06:02.755Z,8.94
2023-04-16T22:08:30.325Z,8.92
2023-04-16T22:11:06.405Z,8.85
2023-04-16T22:13:33.281Z,8.76
2023-04-16T22:16:01.325Z,8.71
2023-04-16T22:18:29.038Z,8.64
2023-04-16T22:20:56.219Z,8.70
2023-04-16T22:23:26.176Z,8.72
2023-04-16T22:25:55.399Z,8.65
2023-04-16T22:28:22.790Z,8.53
2023-04-16T22:30:49.791Z,8.50
2023-04-16T22:33:16.740Z,8.59
2023-04-16T22:35:43.726Z,8.59
2023-04-16T22:38:10.722Z,8.57
2023-04-16T22:40:37.622Z,8.57
2023-04-16T22:43:05.027Z,8.50
2023-04-16T22:45:32.026Z,8.50
2023-04-16T22:47:59.025Z,8.50
2023-04-16T22:50:25.999Z,8.63
2023-04-16T22:52:52.859Z,8.70
2023-04-16T22:55:19.816Z,8.68
2023-04-16T22:57:47.493Z,8.68
2023-04-16T23:00:18.063Z,8.70
2023-04-16T23:02:45.655Z,8.68
2023-04-16T23:05:12.655Z,8.67
2023-04-16T23:07:39.712Z,8.68
2023-04-16T23:10:08.545Z,8.60
2023-04-16T23:12:39.168Z,8.64
2023-04-16T23:15:07.028Z,8.60
2023-04-16T23:17:35.015Z,8.51
2023-04-16T23:20:02.245Z,8.42
2023-04-16T23:22:29.151Z,8.36
2023-04-16T23:24:56.028Z,8.38
2023-04-16T23:27:22.947Z,8.41
2023-04-16T23:29:49.821Z,8.42
2023-04-16T23:32:16.656Z,8.38
2023-04-16T23:34:43.499Z,8.34
2023-04-16T23:37:10.378Z,8.33
2023-04-16T23:39:37.567Z,8.28
2023-04-16T23:42:04.405Z,8.20
2023-04-16T23:44:31.316Z,8.16
2023-04-16T23:46:58.306Z,8.03
2023-04-16T23:49:25.428Z,7.87
2023-04-16T23:51:52.395Z,7.84
2023-04-16T23:54:19.274Z,7.83
2023-04-16T23:56:46.104Z,7.76
2023-04-16T23:59:13.206Z,7.74
